Time;durP1;ratioP1;P1;durP2;ratioP2;P2;SDS_P1;SDS_P2;PMS_P1;PMS_P2;Temp;Humidity;BMP_temperature;BMP_pressure;BME280_temperature;BME280_humidity;BME280_pressure;Samples;Min_cycle;Max_cycle;Signal;HPM_P1;HPM_P2
2022/09/05 00:02:02;;;;;;;5.20;3.30;;;;;;;25.22;54.27;95515.69;4986811;28;20038;-66
2022/09/05 00:04:27;;;;;;;4.30;2.95;;;;;;;25.18;nan;95520.66;5003567;28;20072;-65
2022/09/05 00:07:00;;;;;;;4.07;3.40;;;;;;;25.23;53.94;95525.38;5003614;28;20088;-66
2022/09/05 00:09:48;;;;;;;4.32;3.03;;;;;;;25.20;54.18;95514.69;4992328;28;20046;-65
2022/09/05 00:12:13;;;;;;;3.83;3.15;;;;;;;25.24;53.86;95515.91;4994995;28;20050;-68
2022/09/05 00:15:16;;;;;;;3.85;3.00;;;;;;;25.24;53.95;95521.38;4985815;28;20046;-69
2022/09/05 00:18:03;;;;;;;4.03;3.40;;;;;;;25.21;53.97;95514.19;5003790;28;20183;-69
2022/09/05 00:20:50;;;;;;;3.88;3.47;;;;;;;25.21;54.07;95519.66;4992379;28;20050;-66
2022/09/05 00:23:42;;;;;;;5.68;3.72;;;;;;;24.37;53.36;95391.59;5008902;28;20054;-65
2022/09/05 00:26:21;;;;;;;4.78;3.80;;;;;;;24.55;53.72;95428.47;4983075;28;20089;-64
2022/09/05 00:29:05;;;;;;;4.57;3.80;;;;;;;25.14;53.87;95516.72;4991155;28;20161;-67
2022/09/05 00:31:53;;;;;;;4.57;3.80;;;;;;;25.20;53.43;95520.91;5003711;28;20037;-67
2022/09/05 00:34:38;;;;;;;5.38;4.60;;;;;;;25.06;53.60;95500.13;5005025;28;20026;-69
2022/09/05 00:37:04;;;;;;;4.68;3.88;;;;;;;24.71;53.74;95468.56;4987802;28;20121;-64
2022/09/05 00:39:35;;;;;;;5.45;4.20;;;;;;;25.09;53.67;95520.97;5016616;28;20026;-65
2022/09/05 00:42:05;;;;;;;6.45;4.13;;;;;;;24.21;53.33;95388.94;4969758;28;20121;-68
2022/09/05 00:44:32;;;;;;;5.22;4.20;;;;;;;24.54;53.35;95440.63;4986105;28;20644;-66
2022/09/05 00:47:08;;;;;;;4.75;4.25;;;;;;;25.06;53.37;95532.94;4984943;28;20085;-68
2022/09/05 00:49:52;;;;;;;4.90;4.30;;;;;;;24.20;52.85;95403.84;4986293;28;20050;-65
2022/09/05 00:52:30;;;;;;;5.38;4.60;;;;;;;25.05;53.09;95523.25;4986239;28;20026;-65
2022/09/05 00:55:15;;;;;;;4.82;4.32;;;;;;;25.07;52.81;95534.41;4971967;28;20034;-69
2022/09/05 00:57:49;;;;;;;5.22;4.72;;;;;;;24.59;53.01;95445.34;4991167;28;20058;-66
2022/09/05 01:00:24;;;;;;;6.03;4.80;;;;;;;25.07;53.00;95528.22;4996614;28;20054;-66
2022/09/05 01:03:10;;;;;;;5.20;4.32;;;;;;;25.04;53.15;95529.97;5003640;28;20053;-66
2022/09/05 01:05:54;;;;;;;5.25;4.72;;;;;;;24.90;52.88;95514.66;5003673;28;20096;-68
2022/09/05 01:08:59;;;;;;;6.68;4.85;;;;;;;25.07;52.73;95539.16;4971178;28;20515;-69
2022/09/05 01:11:31;;;;;;;5.53;4.78;;;;;;;25.03;53.09;95539.41;5012156;28;20149;-69
2022/09/05 01:14:26;;;;;;;5.18;4.32;;;;;;;25.06;52.71;95535.66;5000839;28;20124;-64
2022/09/05 01:17:10;;;;;;;5.53;4.35;;;;;;;24.73;52.83;95482.47;4973354;28;20030;-69
2022/09/05 01:20:04;;;;;;;5.22;4.28;;;;;;;25.12;52.47;95533.63;4997035;28;20045;-69
2022/09/05 01:22:45;;;;;;;6.53;4.38;;;;;;;25.05;52.73;95531.47;4971880;28;20637;-64
2022/09/05 01:25:42;;;;;;;5.07;4.57;;;;;;;25.00;52.90;95545.16;4985427;28;20033;-67
2022/09/05 01:28:24;;;;;;;5.07;4.57;;;;;;;24.46;52.59;95447.88;5006880;28;20037;-62
2022/09/05 01:31:16;;;;;;;5.60;4.45;;;;;;;24.65;52.20;95476.06;4977242;28;20068;-61
2022/09/05 01:33:45;;;;;;;6.03;4.28;;;;;;;24.44;52.32;95432.00;4981482;28;20057;-69
2022/09/05 01:36:37;;;;;;;5.25;4.25;;;;;;;24.40;52.51;95436.25;4985925;28;20133;-67
2022/09/05 01:39:07;;;;;;;5.30;4.50;;;;;;;24.99;52.66;95517.09;4951476;28;20176;-62
2022/09/05 01:41:53;;;;;;;5.05;4.30;;;;;;;24.98;52.49;95526.50;4981478;28;20567;-62
2022/09/05 01:45:11;;;;;;;5.45;4.40;;;;;;;24.98;52.54;95521.03;4978867;28;20121;-69
2022/09/05 01:47:59;;;;;;;4.75;4.25;;;;;;;25.00;52.34;95513.09;4997716;28;20061;-69
2022/09/05 01:50:30;;;;;;;5.13;4.63;;;;;;;24.99;52.58;95528.03;5003733;28;20046;-64
2022/09/05 01:53:14;;;;;;;5.15;4.25;;;;;;;24.96;52.59;95529.00;5006901;28;20057;-64
2022/09/05 01:55:56;;;;;;;5.68;4.53;;;;;;;24.75;52.56;95504.56;5006961;28;20100;-68
2022/09/05 01:58:39;;;;;;;5.47;4.63;;;;;;;24.95;52.35;95527.53;4986266;28;20022;-69
2022/09/05 02:01:40;;;;;;;5.07;4.40;;;;;;;24.99;52.51;95527.25;5004895;28;20034;-69
2022/09/05 02:04:40;;;;;;;5.30;4.60;;;;;;;24.97;52.58;95538.69;4971001;28;20051;-66
2022/09/05 02:07:18;;;;;;;5.40;4.55;;;;;;;24.94;52.04;95542.41;5001584;28;20116;-67
2022/09/05 02:09:59;;;;;;;5.10;4.53;;;;;;;24.97;52.23;95535.94;4984409;28;20058;-66
2022/09/05 02:12:49;;;;;;;6.40;4.57;;;;;;;24.44;52.35;95461.31;5012824;28;20042;-64
2022/09/05 02:15:19;;;;;;;4.80;4.35;;;;;;;23.96;52.01;95389.34;4974077;28;20045;-68
2022/09/05 02:17:58;;;;;;;4.60;4.20;;;;;;;24.65;52.23;95492.44;4983419;28;20037;-64
2022/09/05 02:20:31;;;;;;;4.65;4.20;;;;;;;24.27;52.06;95413.47;5003657;28;20100;-65
2022/09/05 02:23:08;;;;;;;5.75;4.60;;;;;;;24.94;52.34;95523.28;5003631;28;20025;-65
2022/09/05 02:26:15;;;;;;;5.00;4.50;;;;;;;24.95;52.22;95522.06;4984845;28;20043;-66
2022/09/05 02:28:44;;;;;;;4.97;4.47;;;;;;;24.95;52.10;95526.78;4963242;28;20062;-64
2022/09/05 02:31:33;;;;;;;5.18;4.68;;;;;;;24.95;52.36;95532.97;4998266;28;20026;-65
2022/09/05 02:34:07;;;;;;;4.70;4.15;;;;;;;24.96;52.41;95539.19;4973949;28;20065;-65
2022/09/05 02:36:43;;;;;;;5.22;4.60;;;;;;;24.96;52.19;95526.28;4989209;28;20383;-67
2022/09/05 02:39:18;;;;;;;4.97;4.47;;;;;;;24.97;52.01;95535.22;4984482;28;20137;-66
2022/09/05 02:42:00;;;;;;;4.90;4.40;;;;;;;24.96;51.88;95537.22;4999416;28;20092;-63
2022/09/05 02:44:33;;;;;;;4.70;4.18;;;;;;;24.58;52.33;95493.72;4985198;28;20422;-62
2022/09/05 02:47:07;;;;;;;4.82;4.32;;;;;;;24.85;52.00;95523.59;4975498;28;20034;-61
2022/09/05 02:49:54;;;;;;;4.65;4.10;;;;;;;24.82;52.04;95530.06;4990830;28;20426;-62
2022/09/05 02:52:20;;;;;;;5.40;4.13;;;;;;;24.95;52.21;95538.44;4985601;28;20026;-62
2022/09/05 02:54:47;;;;;;;5.05;3.92;;;;;;;24.95;52.11;95541.19;4989422;28;20041;-65
2022/09/05 02:57:43;;;;;;;7.18;4.38;;;;;;;24.95;51.81;95541.19;4952429;28;20046;-61
2022/09/05 03:00:11;;;;;;;4.90;4.40;;;;;;;24.34;51.95;95449.19;4982493;28;20137;-66
2022/09/05 03:03:19;;;;;;;5.30;4.10;;;;;;;24.28;51.73;95453.19;5011037;28;20033;-63
2022/09/05 03:06:00;;;;;;;4.78;4.38;;;;;;;24.94;51.61;95542.41;4960712;28;20049;-63
2022/09/05 03:08:44;;;;;;;4.70;4.10;;;;;;;24.92;51.70;95550.41;4994137;28;20065;-63
2022/09/05 03:11:10;;;;;;;4.82;4.20;;;;;;;24.91;51.41;95542.69;4999892;28;20539;-63
2022/09/05 03:13:50;;;;;;;4.43;4.03;;;;;;;24.94;51.45;95547.16;4980259;28;20053;-64
2022/09/05 03:16:24;;;;;;;4.45;3.90;;;;;;;24.64;51.61;95512.81;4991644;28;20109;-61
2022/09/05 03:19:14;;;;;;;4.45;3.95;;;;;;;24.91;51.23;95548.91;5008959;28;20109;-64
2022/09/05 03:22:02;;;;;;;4.68;4.25;;;;;;;24.95;51.18;95549.38;4986859;28;20078;-63
2022/09/05 03:24:43;;;;;;;4.40;3.92;;;;;;;24.96;50.97;95550.88;4965655;28;20057;-62
2022/09/05 03:27:29;;;;;;;4.78;3.97;;;;;;;24.95;51.31;95554.84;4985478;28;20161;-62
2022/09/05 03:30:10;;;;;;;5.13;4.10;;;;;;;24.77;51.17;95532.09;4998031;28;20050;-66
2022/09/05 03:33:17;;;;;;;4.35;3.53;;;;;;;24.96;51.33;95555.56;4994912;28;20041;-65
2022/09/05 03:36:26;;;;;;;4.47;4.07;;;;;;;24.90;51.16;95563.06;4964867;28;20604;-63
2022/09/05 03:39:14;;;;;;;5.30;4.17;;;;;;;24.82;51.29;95562.84;4986669;28;20030;-65
2022/09/05 03:42:15;;;;;;;4.47;3.65;;;;;;;24.89;51.32;95562.34;5004523;28;20289;-67
2022/09/05 03:44:49;;;;;;;4.53;3.63;;;;;;;24.88;51.23;95566.31;4956286;28;20073;-63
2022/09/05 03:47:29;;;;;;;5.07;3.60;;;;;;;24.86;50.88;95571.53;4998985;28;20046;-66
2022/09/05 03:50:23;;;;;;;5.05;3.75;;;;;;;24.88;50.78;95568.31;5003895;28;20046;-66
2022/09/05 03:53:21;;;;;;;5.97;3.90;;;;;;;24.32;50.88;95497.31;4996988;28;20082;-64
2022/09/05 03:55:53;;;;;;;4.25;3.70;;;;;;;24.95;50.91;95573.97;4983407;28;20042;-64
2022/09/05 03:58:46;;;;;;;4.65;3.55;;;;;;;24.85;50.93;95577.50;4998520;28;20017;-62
2022/09/05 04:01:17;;;;;;;4.53;3.95;;;;;;;24.68;50.79;95551.53;4971343;28;20026;-67
2022/09/05 04:03:43;;;;;;;4.15;3.53;;;;;;;24.86;50.70;95584.47;4975017;28;20072;-64
2022/09/05 04:06:39;;;;;;;4.93;4.13;;;;;;;24.50;51.12;95541.94;4979436;28;20034;-63
2022/09/05 04:09:15;;;;;;;4.22;3.70;;;;;;;24.62;51.01;95559.75;5010493;28;20099;-64
2022/09/05 04:11:46;;;;;;;4.28;3.85;;;;;;;24.55;50.62;95549.34;5003580;28;20129;-65
2022/09/05 04:14:13;;;;;;;4.57;3.58;;;;;;;24.44;50.96;95526.84;4971521;28;20038;-67
2022/09/05 04:16:49;;;;;;;4.70;3.50;;;;;;;24.86;50.91;95596.13;5011663;28;20058;-67
2022/09/05 04:19:31;;;;;;;4.25;3.65;;;;;;;24.90;50.88;95596.63;4987170;28;21053;-68
2022/09/05 04:22:19;;;;;;;4.43;3.90;;;;;;;24.92;50.67;95598.84;4980962;28;20117;-65
2022/09/05 04:24:51;;;;;;;4.78;3.42;;;;;;;24.43;50.69;95536.25;5000399;28;20097;-66
2022/09/05 04:27:22;;;;;;;4.47;3.60;;;;;;;24.90;50.95;95610.28;4993095;28;20152;-68
2022/09/05 04:30:01;;;;;;;4.40;4.00;;;;;;;24.90;50.91;95610.28;4992887;28;20050;-62
2022/09/05 04:32:52;;;;;;;5.35;4.07;;;;;;;24.89;50.61;95616.97;5004010;28;20615;-65
2022/09/05 04:35:28;;;;;;;4.13;3.72;;;;;;;24.56;51.13;95571.97;4999895;28;20521;-63
2022/09/05 04:38:13;;;;;;;6.28;3.80;;;;;;;24.26;50.72;95521.94;4972351;28;20153;-61
2022/09/05 04:40:49;;;;;;;4.18;3.55;;;;;;;24.86;50.92;95628.91;4973085;28;20046;-67
2022/09/05 04:43:29;;;;;;;6.30;3.90;;;;;;;24.86;50.89;95631.66;5002916;28;20014;-68
2022/09/05 04:46:00;;;;;;;6.80;3.88;;;;;;;24.71;50.96;95633.22;4987236;28;20413;-67
2022/09/05 04:48:46;;;;;;;6.68;3.80;;;;;;;24.10;51.17;95514.53;5004428;28;20034;-65
2022/09/05 04:51:39;;;;;;;6.35;3.22;;;;;;;24.91;50.87;95641.81;4970876;28;20045;-67
2022/09/05 04:54:23;;;;;;;7.57;4.03;;;;;;;24.93;50.88;95644.78;5003745;28;20070;-64
2022/09/05 04:56:50;;;;;;;5.18;3.70;;;;;;;24.90;50.64;95640.34;5003448;28;20046;-67
2022/09/05 04:59:22;;;;;;;5.82;4.15;;;;;;;24.34;50.76;95567.31;4979617;28;20034;-68
2022/09/05 05:02:22;;;;;;;5.03;3.75;;;;;;;24.92;50.50;95659.69;4995393;28;20033;-65
2022/09/05 05:04:48;;;;;;;5.60;3.70;;;;;;;24.55;50.58;95619.63;4972712;28;20123;-66
2022/09/05 05:07:17;;;;;;;6.82;3.70;;;;;;;24.86;50.86;95661.69;4990986;28;20030;-68
2022/09/05 05:09:47;;;;;;;6.43;3.72;;;;;;;24.90;50.43;95667.66;4971667;28;20036;-64
2022/09/05 05:12:17;;;;;;;9.38;4.00;;;;;;;24.83;50.81;95668.16;4997792;28;20037;-63
2022/09/05 05:14:56;;;;;;;5.40;3.63;;;;;;;24.71;50.55;95637.91;5007648;28;20030;-65
2022/09/05 05:17:38;;;;;;;7.40;4.18;;;;;;;24.85;51.00;95668.41;5007466;28;20064;-64
2022/09/05 05:20:08;;;;;;;6.53;4.13;;;;;;;24.88;50.74;95669.41;4989090;28;20088;-68
2022/09/05 05:22:33;;;;;;;7.28;4.03;;;;;;;24.49;50.65;95605.25;4995685;28;20088;-68
2022/09/05 05:24:59;;;;;;;5.97;3.80;;;;;;;24.79;50.77;95649.81;4959936;28;20457;-69
2022/09/05 05:27:46;;;;;;;6.90;4.10;;;;;;;24.55;50.69;95622.34;4986872;28;20049;-66
2022/09/05 05:30:12;;;;;;;7.15;4.03;;;;;;;24.54;50.54;95629.81;4963138;28;20042;-67
2022/09/05 05:32:46;;;;;;;6.47;3.83;;;;;;;24.71;50.36;95654.31;4961074;28;20121;-64
2022/09/05 05:35:28;;;;;;;6.53;4.80;;;;;;;24.63;50.63;95647.88;4971322;28;20042;-64
2022/09/05 05:38:17;;;;;;;6.65;4.57;;;;;;;24.89;50.88;95688.03;5016851;28;20095;-68
2022/09/05 05:40:54;;;;;;;5.50;4.03;;;;;;;24.94;50.57;95695.44;4994700;28;20050;-68
2022/09/05 05:43:50;;;;;;;6.60;4.32;;;;;;;24.90;50.64;95694.97;5007030;28;20135;-69
2022/09/05 05:46:25;;;;;;;6.85;4.40;;;;;;;24.82;50.77;95679.59;4985789;28;20041;-68
2022/09/05 05:48:51;;;;;;;5.93;3.97;;;;;;;24.86;50.69;95699.94;4981594;28;20065;-66
2022/09/05 05:51:42;;;;;;;6.50;4.22;;;;;;;24.20;50.58;95611.25;4991740;28;20085;-68
2022/09/05 05:54:28;;;;;;;6.93;4.40;;;;;;;24.92;50.60;95686.28;5008963;28;20045;-67
2022/09/05 05:57:33;;;;;;;6.32;3.95;;;;;;;24.82;50.85;95676.13;4981755;28;20077;-66
2022/09/05 06:00:06;;;;;;;7.50;4.13;;;;;;;24.96;50.77;95697.66;5003390;28;20082;-67
2022/09/05 06:03:08;;;;;;;5.60;4.07;;;;;;;24.99;50.27;95700.19;5007007;28;20045;-67
2022/09/05 06:06:03;;;;;;;6.10;4.60;;;;;;;24.96;50.36;95692.97;5007029;28;20125;-65
2022/09/05 06:09:02;;;;;;;8.07;4.80;;;;;;;24.97;50.47;95699.91;4991895;28;20081;-68
2022/09/05 06:11:58;;;;;;;7.87;4.33;;;;;;;24.94;50.72;95692.72;4991070;28;20058;-68
2022/09/05 06:14:34;;;;;;;7.78;4.60;;;;;;;24.98;50.28;95689.72;4972102;28;21347;-62
2022/09/05 06:17:35;;;;;;;6.13;4.70;;;;;;;24.98;50.33;95704.13;5006946;28;20063;-66
2022/09/05 06:20:19;;;;;;;5.07;4.47;;;;;;;25.07;50.35;95698.41;4958810;28;20050;-67
2022/09/05 06:23:06;;;;;;;6.55;4.43;;;;;;;24.90;50.22;95700.44;5007241;28;20121;-64
2022/09/05 06:25:50;;;;;;;7.13;4.30;;;;;;;24.99;50.25;95702.91;4995414;28;20053;-67
2022/09/05 06:28:21;;;;;;;6.43;4.50;;;;;;;24.95;50.56;95686.00;4990592;28;20067;-65
2022/09/05 06:31:09;;;;;;;5.38;4.88;;;;;;;25.01;50.37;95700.41;4973732;28;20025;-63
2022/09/05 06:33:53;;;;;;;6.78;4.53;;;;;;;25.03;50.29;95708.84;4988960;28;20112;-61
2022/09/05 06:36:32;;;;;;;4.93;4.07;;;;;;;24.73;50.22;95652.56;5001402;28;20062;-65
2022/09/05 06:39:00;;;;;;;5.85;3.72;;;;;;;25.12;49.96;95716.75;4988051;28;20061;-68
2022/09/05 06:41:29;;;;;;;5.20;3.47;;;;;;;24.82;50.02;95677.59;5006432;28;20041;-65
2022/09/05 06:44:16;;;;;;;5.93;4.15;;;;;;;25.11;50.00;95720.00;4998984;28;20042;-68
2022/09/05 06:46:42;;;;;;;5.72;4.05;;;;;;;24.46;50.07;95622.63;5004003;28;20488;-64
2022/09/05 06:49:22;;;;;;;6.13;3.95;;;;;;;24.57;50.14;95647.91;4989590;28;20045;-67
2022/09/05 06:52:06;;;;;;;;;;;;;;;25.09;50.06;95725.22;4979422;28;20129;-65
2022/09/05 06:55:04;;;;;;;6.93;4.07;;;;;;;24.63;49.77;95637.69;5005088;28;20018;-68
2022/09/05 06:57:53;;;;;;;6.70;3.90;;;;;;;25.19;49.84;95721.72;4986878;28;20129;-63
2022/09/05 07:00:32;;;;;;;4.22;3.50;;;;;;;25.17;49.77;95721.47;4970806;28;20054;-64
2022/09/05 07:03:17;;;;;;;4.32;3.92;;;;;;;25.18;49.99;95708.53;4954426;28;20042;-66
2022/09/05 07:05:49;;;;;;;6.15;3.75;;;;;;;25.23;49.71;95714.00;4972301;28;20116;-69
2022/09/05 07:09:00;;;;;;;5.20;3.65;;;;;;;25.13;50.14;95701.84;4968602;28;20049;-64
2022/09/05 07:11:36;;;;;;;5.60;4.00;;;;;;;24.36;49.79;95580.47;4954087;28;20054;-70
2022/09/05 07:14:03;;;;;;;4.68;3.65;;;;;;;25.27;49.66;95717.19;4967580;28;20050;-65
2022/09/05 07:16:49;;;;;;;3.70;3.13;;;;;;;25.19;49.60;95707.31;4989614;28;20046;-67
2022/09/05 07:19:23;;;;;;;4.18;3.53;;;;;;;25.26;49.54;95707.53;5001952;28;20022;-66
2022/09/05 07:21:53;;;;;;;5.20;3.70;;;;;;;25.30;49.43;95710.72;4992229;28;20121;-64
2022/09/05 07:24:21;;;;;;;3.97;3.58;;;;;;;24.42;49.38;95589.38;4976805;28;20051;-69
2022/09/05 07:26:47;;;;;;;4.32;3.30;;;;;;;25.31;48.91;95723.16;4954854;28;20180;-66
2022/09/05 07:29:24;;;;;;;4.97;3.25;;;;;;;25.12;49.17;95686.69;4992490;28;20041;-67
2022/09/05 07:31:53;;;;;;;4.40;3.05;;;;;;;24.77;49.22;95619.50;5005451;28;20060;-64
2022/09/05 07:34:24;;;;;;;3.95;3.28;;;;;;;25.23;49.46;95694.88;4986779;28;20044;-68
2022/09/05 07:36:54;;;;;;;5.28;3.50;;;;;;;25.25;49.05;95681.41;4964214;28;20072;-67
2022/09/05 07:39:23;;;;;;;3.60;3.00;;;;;;;25.12;49.09;95673.03;4962574;28;20061;-67
2022/09/05 07:41:52;;;;;;;6.07;3.30;;;;;;;24.84;48.80;95631.41;4949169;28;21271;-68
2022/09/05 07:44:23;;;;;;;5.00;3.08;;;;;;;25.35;49.03;95710.69;4969122;28;20121;-66
2022/09/05 07:46:55;;;;;;;4.00;3.00;;;;;;;24.56;48.75;95596.53;4986381;28;20052;-63
2022/09/05 07:49:22;;;;;;;4.00;3.08;;;;;;;25.17;48.77;95691.41;4976077;28;20031;-67
2022/09/05 07:51:56;;;;;;;4.40;3.35;;;;;;;25.22;49.13;95687.91;4968465;28;20041;-68
2022/09/05 07:54:22;;;;;;;5.47;3.30;;;;;;;25.37;48.73;95704.72;4959227;28;20147;-68
2022/09/05 07:56:58;;;;;;;4.05;3.30;;;;;;;25.41;48.61;95705.19;4985208;28;20196;-67
2022/09/05 07:59:23;;;;;;;5.00;3.45;;;;;;;24.95;48.38;95633.34;4967670;28;20058;-63
2022/09/05 08:01:49;;;;;;;4.18;3.42;;;;;;;25.20;48.66;95679.47;4951255;28;20076;-69
2022/09/05 08:04:28;;;;;;;3.85;2.97;;;;;;;25.13;48.50;95671.78;4985085;28;20034;-64
2022/09/05 08:06:57;;;;;;;4.80;3.40;;;;;;;25.41;49.00;95705.19;4968714;28;20161;-68
2022/09/05 08:09:44;;;;;;;3.60;3.00;;;;;;;25.42;48.47;95717.59;4980194;28;20117;-63
2022/09/05 08:12:27;;;;;;;3.60;2.92;;;;;;;24.83;48.48;95618.25;4969615;28;20104;-67
2022/09/05 08:15:13;;;;;;;4.75;3.25;;;;;;;25.11;48.14;95649.69;4978516;28;20034;-66
2022/09/05 08:18:04;;;;;;;4.72;3.28;;;;;;;25.50;48.49;95702.13;4967980;28;20506;-68
2022/09/05 08:20:41;;;;;;;5.65;2.97;;;;;;;25.49;48.38;95701.41;4981400;28;20050;-67
2022/09/05 08:23:45;;;;;;;4.15;3.08;;;;;;;25.50;48.03;95704.88;4984738;28;20072;-68
2022/09/05 08:26:35;;;;;;;4.25;3.20;;;;;;;25.28;48.18;95674.94;4985051;28;20798;-68
2022/09/05 08:29:03;;;;;;;3.90;2.85;;;;;;;25.52;48.41;95710.59;4970966;28;20038;-68
2022/09/05 08:31:59;;;;;;;3.70;2.92;;;;;;;25.53;48.17;95706.59;4985068;28;20077;-68
2022/09/05 08:34:35;;;;;;;4.78;2.90;;;;;;;25.43;48.30;95692.50;4954689;28;20085;-67
2022/09/05 08:37:01;;;;;;;4.05;2.72;;;;;;;25.06;48.04;95636.78;4983638;28;20731;-65
2022/09/05 08:39:30;;;;;;;4.22;3.20;;;;;;;25.55;47.45;95704.84;4951396;28;20035;-68
2022/09/05 08:42:07;;;;;;;4.15;2.92;;;;;;;25.04;47.46;95631.09;4967880;28;20070;-64
2022/09/05 08:44:37;;;;;;;3.25;2.65;;;;;;;24.81;47.61;95587.22;4983622;28;20046;-67
2022/09/05 08:47:11;;;;;;;;;;;;;;;25.62;47.49;95703.56;4948923;28;20118;-68
2022/09/05 08:50:01;;;;;;;4.47;2.95;;;;;;;25.54;47.71;95691.69;4974217;28;19928;-64
2022/09/05 08:52:29;;;;;;;;;;;;;;;25.67;47.72;95708.31;4966126;28;20089;-65
2022/09/05 08:55:08;;;;;;;4.32;2.90;;;;;;;25.66;47.75;95698.59;4992326;28;20015;-65
2022/09/05 08:57:58;;;;;;;4.20;2.70;;;;;;;25.71;47.44;95706.78;4950469;28;20118;-69
2022/09/05 09:00:25;;;;;;;5.65;3.10;;;;;;;25.12;47.57;95618.38;4974375;28;20052;-68
2022/09/05 09:03:05;;;;;;;4.50;3.35;;;;;;;25.73;47.49;95709.00;4985959;28;20042;-66
2022/09/05 09:05:49;;;;;;;6.65;4.68;;;;;;;25.74;46.91;95710.47;4975256;28;20530;-67
2022/09/05 09:08:49;;;;;;;5.68;3.67;;;;;;;25.79;47.16;95712.44;4985433;28;20121;-65
2022/09/05 09:11:33;;;;;;;14.20;9.43;;;;;;;25.38;46.28;95646.03;4983819;28;20058;-65
2022/09/05 09:14:24;;;;;;;9.65;5.90;;;;;;;25.63;46.58;95694.13;4983985;28;20041;-62
2022/09/05 09:17:17;;;;;;;6.22;4.82;;;;;;;25.78;47.03;95705.47;4986054;28;20057;-64
2022/09/05 09:19:48;;;;;;;7.50;4.70;;;;;;;25.01;46.62;95595.84;4947839;28;20539;-65
2022/09/05 09:22:19;;;;;;;5.15;3.95;;;;;;;25.34;46.57;95640.09;4950670;28;20030;-63
2022/09/05 09:24:57;;;;;;;4.60;3.60;;;;;;;25.82;46.29;95699.22;4984059;28;20034;-68
2022/09/05 09:27:50;;;;;;;5.30;3.80;;;;;;;25.85;46.54;95714.63;4966536;28;20035;-67
2022/09/05 09:30:15;;;;;;;5.18;3.35;;;;;;;25.26;46.52;95628.25;4948260;28;20038;-63
2022/09/05 09:32:48;;;;;;;5.05;3.55;;;;;;;25.14;46.68;95590.53;4959545;28;20034;-67
2022/09/05 09:35:29;;;;;;;4.47;3.40;;;;;;;25.90;46.53;95702.91;4981813;28;20045;-66
2022/09/05 09:38:23;;;;;;;5.13;3.28;;;;;;;25.21;46.62;95604.41;5004511;28;20038;-64
2022/09/05 09:40:52;;;;;;;4.32;3.10;;;;;;;25.93;46.78;95701.88;5004088;28;20030;-64
2022/09/05 09:43:18;;;;;;;4.40;3.50;;;;;;;25.97;46.52;95702.34;4994740;28;20498;-68
2022/09/05 09:45:52;;;;;;;4.10;3.42;;;;;;;25.98;46.33;95703.84;5003669;28;20061;-64
2022/09/05 09:48:29;;;;;;;3.65;2.90;;;;;;;25.99;46.44;95699.84;5007960;28;20046;-65
2022/09/05 09:51:21;;;;;;;3.50;3.08;;;;;;;25.16;45.74;95569.66;5013198;28;20050;-64
2022/09/05 09:54:15;;;;;;;4.35;3.17;;;;;;;26.03;46.46;95689.34;4991903;28;20823;-62
2022/09/05 09:56:43;;;;;;;4.55;3.20;;;;;;;25.93;46.60;95674.53;4989354;28;20093;-68
2022/09/05 09:59:11;;;;;;;3.53;2.83;;;;;;;26.06;46.27;95676.66;5017594;28;20037;-64
2022/09/05 10:01:51;;;;;;;6.10;3.47;;;;;;;26.08;46.45;95677.59;5009285;28;20926;-62
2022/09/05 10:04:45;;;;;;;5.15;3.15;;;;;;;26.10;46.98;95674.34;5011076;28;20083;-64
2022/09/05 10:07:43;;;;;;;4.38;2.97;;;;;;;26.11;46.65;95673.09;5004939;28;20099;-63
2022/09/05 10:10:45;;;;;;;3.90;3.25;;;;;;;26.13;46.77;95665.13;4974368;28;20124;-65
2022/09/05 10:13:17;;;;;;;5.72;3.55;;;;;;;26.12;46.55;95664.38;4989985;28;20034;-62
2022/09/05 10:16:07;;;;;;;3.63;3.10;;;;;;;26.06;47.22;95660.94;5014015;28;20418;-63
2022/09/05 10:18:42;;;;;;;3.90;3.13;;;;;;;25.58;47.91;95604.63;5000972;28;20386;-67
2022/09/05 10:21:13;;;;;;;4.65;2.80;;;;;;;25.62;47.20;95583.19;4988933;28;20113;-67
2022/09/05 10:24:21;;;;;;;3.95;3.00;;;;;;;25.78;47.92;95612.44;5006533;28;20049;-65
2022/09/05 10:27:08;;;;;;;3.70;2.95;;;;;;;26.09;48.19;95654.47;4967268;28;20048;-63
2022/09/05 10:29:42;;;;;;;3.72;3.08;;;;;;;26.09;48.22;95640.03;5007863;28;20050;-63
2022/09/05 10:32:41;;;;;;;4.50;3.53;;;;;;;26.10;47.88;95645.00;4996000;28;20058;-68
2022/09/05 10:35:12;;;;;;;4.50;3.50;;;;;;;26.18;46.53;95640.44;5005826;28;20050;-66
2022/09/05 10:37:50;;;;;;;3.95;3.10;;;;;;;26.13;48.04;95640.47;5008442;28;20645;-67
2022/09/05 10:40:19;;;;;;;3.90;2.95;;;;;;;26.15;47.85;95630.50;4991101;28;20022;-68
2022/09/05 10:42:46;;;;;;;4.70;3.25;;;;;;;26.09;47.72;95632.56;4985965;28;20033;-67
2022/09/05 10:45:33;;;;;;;3.65;3.15;;;;;;;26.12;48.09;95637.00;4982330;28;20115;-64
2022/09/05 10:48:36;;;;;;;4.78;2.75;;;;;;;26.18;47.67;95634.97;5005339;28;20041;-65
2022/09/05 10:51:19;;;;;;;4.70;3.13;;;;;;;26.15;48.09;95619.56;4986095;28;20491;-66
2022/09/05 10:54:10;;;;;;;3.67;2.85;;;;;;;26.21;47.65;95622.97;4984403;28;20131;-67
2022/09/05 10:56:48;;;;;;;4.10;3.53;;;;;;;26.02;48.12;95615.94;5005617;28;20038;-63
2022/09/05 10:59:28;;;;;;;3.92;3.25;;;;;;;25.65;47.58;95552.13;5017575;28;20037;-66
2022/09/05 11:01:58;;;;;;;;;;;;;;;26.23;47.70;95636.16;4985085;28;20047;-66
2022/09/05 11:04:35;;;;;;;3.55;3.00;;;;;;;25.38;47.86;95512.03;5008897;28;19913;-69
2022/09/05 11:07:16;;;;;;;4.20;3.25;;;;;;;26.19;47.80;95636.44;4987033;28;20037;-70
2022/09/05 11:09:53;;;;;;;4.35;3.17;;;;;;;26.20;48.11;95637.19;5004847;28;20056;-65
2022/09/05 11:12:19;;;;;;;4.18;3.08;;;;;;;26.19;48.04;95633.72;5006253;28;20046;-69
2022/09/05 11:14:52;;;;;;;3.80;2.88;;;;;;;25.87;47.82;95599.94;5008513;28;20493;-63
2022/09/05 11:17:35;;;;;;;4.03;3.40;;;;;;;26.13;47.75;95627.56;5005453;28;20030;-66
2022/09/05 11:20:09;;;;;;;4.78;3.40;;;;;;;26.22;46.08;95624.47;5005363;28;20034;-68
2022/09/05 11:22:39;;;;;;;4.45;2.83;;;;;;;25.83;46.18;95563.88;5005397;28;20129;-67
2022/09/05 11:25:17;;;;;;;4.03;2.97;;;;;;;25.96;45.81;95574.22;5010859;28;20556;-66
2022/09/05 11:27:44;;;;;;;4.93;3.03;;;;;;;25.87;46.08;95558.88;5006991;28;20054;-66
2022/09/05 11:30:12;;;;;;;3.78;2.90;;;;;;;26.27;46.38;95614.72;5000021;28;20125;-65
2022/09/05 11:33:02;;;;;;;3.88;2.60;;;;;;;26.28;45.39;95600.53;5000295;28;20553;-67
2022/09/05 11:35:29;;;;;;;4.13;2.92;;;;;;;25.68;45.17;95521.00;4987305;28;20064;-67
2022/09/05 11:38:10;;;;;;;3.58;3.13;;;;;;;26.22;47.34;95596.34;5002524;28;20042;-66
2022/09/05 11:40:50;;;;;;;4.43;3.10;;;;;;;26.28;47.17;95608.75;4991548;28;20049;-63
2022/09/05 11:43:28;;;;;;;4.03;2.92;;;;;;;26.28;47.49;95603.28;5004974;28;20026;-66
2022/09/05 11:46:12;;;;;;;4.85;2.90;;;;;;;26.25;47.43;95600.78;5005594;28;20543;-64
2022/09/05 11:48:54;;;;;;;4.28;2.97;;;;;;;25.29;47.31;95468.66;4993935;28;20138;-62
2022/09/05 11:51:42;;;;;;;2.90;2.60;;;;;;;25.42;47.39;95471.50;4970169;28;20042;-65
2022/09/05 11:54:26;;;;;;;4.28;3.30;;;;;;;26.27;47.69;95599.78;4998317;28;20503;-65
2022/09/05 11:57:09;;;;;;;4.25;2.97;;;;;;;26.22;47.79;95597.09;4997396;28;20557;-63
2022/09/05 12:00:10;;;;;;;4.38;3.20;;;;;;;26.19;47.49;95595.38;4985778;28;20134;-67
2022/09/05 12:02:53;;;;;;;3.42;2.90;;;;;;;26.24;47.36;95594.56;4983614;28;20050;-68
2022/09/05 12:05:37;;;;;;;3.67;3.05;;;;;;;26.23;47.35;95593.09;4999279;28;20062;-66
2022/09/05 12:08:06;;;;;;;3.50;3.00;;;;;;;26.27;47.51;95577.13;4999802;28;20034;-63
2022/09/05 12:10:50;;;;;;;3.55;2.97;;;;;;;26.37;47.44;95581.75;4984364;28;20045;-67
2022/09/05 12:13:37;;;;;;;3.95;3.13;;;;;;;26.35;47.69;95578.03;5003843;28;20029;-65
2022/09/05 12:16:26;;;;;;;3.67;2.90;;;;;;;25.73;47.39;95484.66;5004820;28;20087;-67
2022/09/05 12:19:03;;;;;;;4.72;3.00;;;;;;;26.38;47.38;95566.06;4989221;28;20103;-64
2022/09/05 12:21:38;;;;;;;4.10;2.80;;;;;;;25.84;47.24;95496.97;4986810;28;20092;-64
2022/09/05 12:24:06;;;;;;;4.18;2.88;;;;;;;26.37;47.29;95575.56;4971687;28;20034;-65
2022/09/05 12:26:31;;;;;;;3.28;2.80;;;;;;;26.37;47.07;95575.56;5004601;28;20034;-67
2022/09/05 12:29:07;;;;;;;3.35;2.80;;;;;;;26.21;47.43;95557.25;5004538;28;20048;-68
2022/09/05 12:31:37;;;;;;;3.65;2.92;;;;;;;26.20;47.32;95555.03;4977368;28;20859;-65
2022/09/05 12:34:08;;;;;;;3.70;2.75;;;;;;;25.77;47.19;95474.16;4987797;28;20034;-66
2022/09/05 12:36:41;;;;;;;3.92;2.70;;;;;;;26.38;47.03;95555.09;4968045;28;20053;-66